Olib — 9AA6266 — position and weather

sailwx.info

Track history (hours):
 
Tides and Currents Weather Stations Pressure Air Temp Water Temp Dewpoint Dewpoint Depression Visibility Wind Speed Wind Dir Waves Ship Positions

Olib

Last reported at 2017-Jan-20 08:12 UTC. Time now 2017-Jan-22 14:20 UTC.
Position N 60°01' E 026°37'.

Length 247 m; draft 11 m.

Type: Ship. MMSI: 238252000.

Date/timePositionNaut miles runAvg speedWind from/ knotsBaromVisibWave heightAir tempDewpointWater temp
2017-Jan-20 08:12N 60°01' E 026°37'5311.3
2017-Jan-20 03:33N 60°06' E 028°22'38 7.3
2017-Jan-19 22:21N 60°00' E 029°38'6 7.0
2017-Jan-19 21:34N 59°58' E 029°48'9 8.8
2017-Jan-19 20:34N 59°54' E 030°04'3 1.3
2017-Jan-19 18:08N 59°53' E 030°10'0 0.0
2017-Jan-19 17:32N 59°53' E 030°10'0 0.0
2017-Jan-19 16:26N 59°53' E 030°10'0 0.0
2017-Jan-19 15:32N 59°53' E 030°10'0 0.0
2017-Jan-19 14:20N 59°53' E 030°10'0 0.0
2017-Jan-19 13:11N 59°53' E 030°10'0 0.0
2017-Jan-19 10:29N 59°53' E 030°10'0 0.0
2017-Jan-19 09:29N 59°53' E 030°10'0 0.0
2017-Jan-19 08:26N 59°53' E 030°10'0 0.0
2017-Jan-19 01:32N 59°53' E 030°10'0 0.0
2017-Jan-18 23:20N 59°53' E 030°10'0 0.0
2017-Jan-18 22:32N 59°53' E 030°10'0 0.0
2017-Jan-18 21:32N 59°53' E 030°10'0 0.0
2017-Jan-18 20:32N 59°53' E 030°10'0 0.0
2017-Jan-17 20:11N 59°53' E 030°10'0 0.0
2017-Jan-17 19:33N 59°53' E 030°10'1 0.6
2017-Jan-17 18:33N 59°53' E 030°09'5 5.3
2017-Jan-17 17:33N 59°55' E 029°59'41 2.4
2017-Jan-17 00:33N 60°02' E 028°39'1211.5
2017-Jan-16 23:33N 60°06' E 028°17'1212.2
2017-Jan-16 22:32N 60°10' E 027°53'3611.5
2017-Jan-16 19:25N 59°59' E 026°45'8712.3
2017-Jan-16 12:19N 59°38' E 023°57'1312.1
2017-Jan-16 11:13N 59°34' E 023°32'36210.9
2017-Jan-15 02:05N 55°32' E 015°10'711.7
2017-Jan-15 01:30N 55°29' E 014°59'1111.8
2017-Jan-15 00:32N 55°24' E 014°41'1211.8
2017-Jan-14 23:33N 55°16' E 014°28'1211.8
2017-Jan-14 22:33N 55°06' E 014°15'1211.9
2017-Jan-14 21:30N 54°59' E 013°57'3511.9
2017-Jan-14 18:33N 54°48' E 012°59'1212.1
2017-Jan-14 17:33N 54°43' E 012°40'1212.3
2017-Jan-14 16:33N 54°36' E 012°22'1110.7
2017-Jan-14 15:33N 54°27' E 012°12'1211.6
2017-Jan-14 14:33N 54°25' E 011°53'1312.6
2017-Jan-14 13:33N 54°29' E 011°32'1312.8
2017-Jan-14 12:33N 54°35' E 011°12'1312.7
2017-Jan-14 11:33N 54°41' E 010°53'1111.4
2017-Jan-14 10:33N 54°53' E 010°53'1110.9
2017-Jan-14 09:33N 55°02' E 011°02'12510.2
2017-Jan-13 21:12N 57°06' E 011°38'812.6
2017-Jan-13 20:33N 57°14' E 011°34'1312.8
2017-Jan-13 19:33N 57°26' E 011°25'1312.7
2017-Jan-13 18:33N 57°35' E 011°09'1312.8
2017-Jan-13 17:33N 57°44' E 010°51'37811.8
2017-Jan-12 09:33N 53°04' E 003°26'1110.8
2017-Jan-12 08:32N 52°53' E 003°19'9012.8
2017-Jan-12 01:32N 51°32' E 002°17'1414.5
2017-Jan-12 00:33N 51°18' E 002°09'1515.2
2017-Jan-11 23:33N 51°09' E 001°51'1615.8
2017-Jan-11 22:33N 50°58' E 001°33'7013.8
2017-Jan-11 17:28N 50°19' E 000°00'3813.1
2017-Jan-11 14:33N 50°09' W 000°57'1111.0
2017-Jan-11 13:33N 50°06' W 001°14'1110.6
2017-Jan-11 12:34N 50°04' W 001°30'1110.6
2017-Jan-11 11:33N 50°01' W 001°46'1211.7
2017-Jan-11 10:33N 49°57' W 002°03'174 9.1
2017-Jan-10 15:31N 47°47' W 004°58'5510.3
2017-Jan-10 10:09N 47°21' W 003°46'610.2
2017-Jan-10 09:32N 47°18' W 003°37'1010.3
2017-Jan-10 08:33N 47°14' W 003°24'  
Track history (hours):
 
Tides and Currents Weather Stations Pressure Air Temp Water Temp Dewpoint Dewpoint Depression Visibility Wind Speed Wind Dir Waves Ship Positions

Olib

Last reported at 2017-Jan-20 08:12 UTC. Time now 2017-Jan-22 14:20 UTC.
Position N 60°01' E 026°37'.

Length 247 m; draft 11 m.

Type: Ship. MMSI: 238252000.

Date/timePositionNaut miles runAvg speedWind from/ knotsBaromVisibWave heightAir tempDewpointWater temp
2017-Jan-20 08:12N 60°01' E 026°37'5311.3
2017-Jan-20 03:33N 60°06' E 028°22'38 7.3
2017-Jan-19 22:21N 60°00' E 029°38'6 7.0
2017-Jan-19 21:34N 59°58' E 029°48'9 8.8
2017-Jan-19 20:34N 59°54' E 030°04'3 1.3
2017-Jan-19 18:08N 59°53' E 030°10'0 0.0
2017-Jan-19 17:32N 59°53' E 030°10'0 0.0
2017-Jan-19 16:26N 59°53' E 030°10'0 0.0
2017-Jan-19 15:32N 59°53' E 030°10'0 0.0
2017-Jan-19 14:20N 59°53' E 030°10'0 0.0
2017-Jan-19 13:11N 59°53' E 030°10'0 0.0
2017-Jan-19 10:29N 59°53' E 030°10'0 0.0
2017-Jan-19 09:29N 59°53' E 030°10'0 0.0
2017-Jan-19 08:26N 59°53' E 030°10'0 0.0
2017-Jan-19 01:32N 59°53' E 030°10'0 0.0
2017-Jan-18 23:20N 59°53' E 030°10'0 0.0
2017-Jan-18 22:32N 59°53' E 030°10'0 0.0
2017-Jan-18 21:32N 59°53' E 030°10'0 0.0
2017-Jan-18 20:32N 59°53' E 030°10'0 0.0
2017-Jan-17 20:11N 59°53' E 030°10'0 0.0
2017-Jan-17 19:33N 59°53' E 030°10'1 0.6
2017-Jan-17 18:33N 59°53' E 030°09'5 5.3
2017-Jan-17 17:33N 59°55' E 029°59'41 2.4
2017-Jan-17 00:33N 60°02' E 028°39'1211.5
2017-Jan-16 23:33N 60°06' E 028°17'1212.2
2017-Jan-16 22:32N 60°10' E 027°53'3611.5
2017-Jan-16 19:25N 59°59' E 026°45'8712.3
2017-Jan-16 12:19N 59°38' E 023°57'1312.1
2017-Jan-16 11:13N 59°34' E 023°32'36210.9
2017-Jan-15 02:05N 55°32' E 015°10'711.7
2017-Jan-15 01:30N 55°29' E 014°59'1111.8
2017-Jan-15 00:32N 55°24' E 014°41'1211.8
2017-Jan-14 23:33N 55°16' E 014°28'1211.8
2017-Jan-14 22:33N 55°06' E 014°15'1211.9
2017-Jan-14 21:30N 54°59' E 013°57'3511.9
2017-Jan-14 18:33N 54°48' E 012°59'1212.1
2017-Jan-14 17:33N 54°43' E 012°40'1212.3
2017-Jan-14 16:33N 54°36' E 012°22'1110.7
2017-Jan-14 15:33N 54°27' E 012°12'1211.6
2017-Jan-14 14:33N 54°25' E 011°53'1312.6
2017-Jan-14 13:33N 54°29' E 011°32'1312.8
2017-Jan-14 12:33N 54°35' E 011°12'1312.7
2017-Jan-14 11:33N 54°41' E 010°53'1111.4
2017-Jan-14 10:33N 54°53' E 010°53'1110.9
2017-Jan-14 09:33N 55°02' E 011°02'12510.2
2017-Jan-13 21:12N 57°06' E 011°38'812.6
2017-Jan-13 20:33N 57°14' E 011°34'1312.8
2017-Jan-13 19:33N 57°26' E 011°25'1312.7
2017-Jan-13 18:33N 57°35' E 011°09'1312.8
2017-Jan-13 17:33N 57°44' E 010°51'37811.8
2017-Jan-12 09:33N 53°04' E 003°26'1110.8
2017-Jan-12 08:32N 52°53' E 003°19'9012.8
2017-Jan-12 01:32N 51°32' E 002°17'1414.5
2017-Jan-12 00:33N 51°18' E 002°09'1515.2
2017-Jan-11 23:33N 51°09' E 001°51'1615.8
2017-Jan-11 22:33N 50°58' E 001°33'7013.8
2017-Jan-11 17:28N 50°19' E 000°00'3813.1
2017-Jan-11 14:33N 50°09' W 000°57'1111.0
2017-Jan-11 13:33N 50°06' W 001°14'1110.6
2017-Jan-11 12:34N 50°04' W 001°30'1110.6
2017-Jan-11 11:33N 50°01' W 001°46'1211.7
2017-Jan-11 10:33N 49°57' W 002°03'174 9.1
2017-Jan-10 15:31N 47°47' W 004°58'5510.3
2017-Jan-10 10:09N 47°21' W 003°46'610.2
2017-Jan-10 09:32N 47°18' W 003°37'1010.3
2017-Jan-10 08:33N 47°14' W 003°24'  

Dump ship's entire track history